This is the latest recevied weather packets stored in our database for station/object KD9CCP. If no packets are shown the sender has not sent any weather packets the latest 1 day(s).
| Time | Temp. | Humidity | Pressure | Rain* | Wind** | Luminosity | Snow |
|---|---|---|---|---|---|---|---|
| 1778045957 | -1.11° C | 87% | 1012.8 hPa | 0 mm | 0.45 m/s, 348° | 0 W/m² | - |
| 1778045656 | -1.11° C | 89% | 1012.7 hPa | 0 mm | 0 m/s | 0 W/m² | - |
| 1778045354 | -1.11° C | 90% | 1012.7 hPa | 0 mm | 0 m/s | 0 W/m² | - |
| 1778045052 | -1.11° C | 90% | 1012.7 hPa | 0 mm | 0.45 m/s, 347° | 0 W/m² | - |
| 1778044750 | -1.67° C | 87% | 1012.5 hPa | 0 mm | 0 m/s | 0 W/m² | - |
| 1778044446 | -1.67° C | 86% | 1012.5 hPa | 0 mm | 0 m/s | 0 W/m² | - |
| 1778044143 | -1.67° C | 86% | 1012.5 hPa | 0 mm | 0 m/s | 0 W/m² | - |
| 1778043841 | -1.67° C | 86% | 1012.7 hPa | 0 mm | 0 m/s | 0 W/m² | - |
| 1778043537 | -1.67° C | 85% | 1012.5 hPa | 0 mm | 0 m/s | 0 W/m² | - |
| 1778043234 | -1.11° C | 86% | 1012.5 hPa | 0 mm | 0 m/s | 0 W/m² | - |
| 1778042931 | -1.11° C | 85% | 1012.6 hPa | 0 mm | 0 m/s | 0 W/m² | - |
| 1778042629 | -1.11° C | 85% | 1012.5 hPa | 0 mm | 0 m/s | 0 W/m² | - |
| 1778042325 | -1.11° C | 84% | 1012.4 hPa | 0 mm | 0 m/s | 0 W/m² | - |
| 1778042023 | -0.56° C | 86% | 1012.5 hPa | 0 mm | 0 m/s | 0 W/m² | - |
| 1778041721 | -0.56° C | 85% | 1012.7 hPa | 0 mm | 0 m/s | 0 W/m² | - |
| 1778041420 | 0° C | 86% | 1012.6 hPa | 0 mm | 0 m/s | 0 W/m² | - |
| 1778041118 | -0.56° C | 86% | 1012.7 hPa | 0 mm | 0 m/s | 0 W/m² | - |
| 1778040815 | 0° C | 85% | 1012.4 hPa | 0 mm | 0 m/s | 0 W/m² | - |
| 1778040512 | 0° C | 85% | 1012.7 hPa | 0 mm | 0 m/s | 0 W/m² | - |
| 1778040209 | 0° C | 84% | 1012.6 hPa | 0 mm | 0 m/s | 0 W/m² | - |
| 1778039905 | 0° C | 84% | 1012.6 hPa | 0 mm | 0 m/s | 0 W/m² | - |
| 1778039603 | -0.56° C | 81% | 1012.5 hPa | 0 mm | 0 m/s | 0 W/m² | - |
| 1778039300 | -0.56° C | 79% | 1012.6 hPa | 0 mm | 0 m/s | 0 W/m² | - |
| 1778038997 | 0° C | 78% | 1012.7 hPa | 0 mm | 0 m/s | 0 W/m² | - |
| 1778038694 | 0° C | 77% | 1012.5 hPa | 0 mm | 0 m/s | 0 W/m² | - |
* Rain latest hour (hover to see other rain measurements)
** Current wind speed in m/s (hover to see current wind gust speed)